aviador You're here:

OINE Decoded Metar

KALALEH in IRAN
Report Time2017-12-11 05:00:00
UTC Time2017-12-11 05:32:20
Flight Rules vfr VFR
WindCalm
Visibility9999 m
Phenomena:N/A
Clouds:N/A
Expected CloudBase > 2,000 ft AGL from Temp-Dew spread
CeilingNone
Temp07°C (ISA -7)
Dew Point02°C (71% RH)
AAT5.3°C
QNH1020 hPa
Density Alt-574 ft
Elevation425 ft
Report Wrong Elevation
Raw Report
METAR OINE 110500Z 00000KT CAVOK 07/02 Q1020=

Extra information for OINE:More info

Metar Taf Metar & Taf Last 4 Metars F.Rules Stats Wind Profile Meteogram Temp Stats Airport Information Weather charts Add Link Nearby VenuesMetar ALERT Operation Metar Decoded Social comments